Time;durP1;ratioP1;P1;durP2;ratioP2;P2;SDS_P1;SDS_P2;PMS_P1;PMS_P2;Temp;Humidity;BMP_temperature;BMP_pressure;BME280_temperature;BME280_humidity;BME280_pressure;Samples;Min_cycle;Max_cycle;Signal;HPM_P1;HPM_P2
2021/06/21 00:00:00;;;;;;;9.73;9.03;;;23.70;99.90;;;;;;5093670;28;20410;-79
2021/06/21 00:02:26;;;;;;;10.03;9.43;;;23.60;99.90;;;;;;5094112;28;20168;-79
2021/06/21 00:04:55;;;;;;;9.97;9.27;;;23.50;99.90;;;;;;5093210;28;20409;-80
2021/06/21 00:07:21;;;;;;;10.83;10.10;;;23.50;99.90;;;;;;5095059;28;20497;-80
2021/06/21 00:09:48;;;;;;;10.10;9.20;;;23.50;99.90;;;;;;5096308;28;20458;-80
2021/06/21 00:12:15;;;;;;;10.50;9.80;;;23.40;99.90;;;;;;5095486;28;20471;-80
2021/06/21 00:14:41;;;;;;;11.00;10.33;;;23.40;99.90;;;;;;5114362;28;20416;-80
2021/06/21 00:17:07;;;;;;;11.63;10.83;;;23.30;99.90;;;;;;5113338;28;20409;-80
2021/06/21 00:19:33;;;;;;;11.57;10.77;;;23.30;99.90;;;;;;5114168;28;20401;-80
2021/06/21 00:22:01;;;;;;;12.73;11.73;;;23.30;99.90;;;;;;5113481;28;20398;-80
2021/06/21 00:24:26;;;;;;;13.30;12.20;;;23.30;99.90;;;;;;5113950;28;20414;-80
2021/06/21 00:26:52;;;;;;;13.07;12.00;;;23.30;99.90;;;;;;5113495;28;20402;-80
2021/06/21 00:29:20;;;;;;;13.03;12.03;;;23.20;99.90;;;;;;5112853;28;20210;-80
2021/06/21 00:31:46;;;;;;;13.97;12.97;;;23.20;99.90;;;;;;5093325;28;20628;-79
2021/06/21 00:34:12;;;;;;;13.10;12.20;;;23.20;99.90;;;;;;5092992;28;20795;-79
2021/06/21 00:36:38;;;;;;;14.57;13.40;;;23.20;99.90;;;;;;5093451;28;20403;-80
2021/06/21 00:39:06;;;;;;;14.80;13.77;;;23.20;99.90;;;;;;5092882;28;20168;-79
2021/06/21 00:41:33;;;;;;;16.43;15.23;;;23.20;99.90;;;;;;5093393;28;20489;-79
2021/06/21 00:43:59;;;;;;;15.20;14.10;;;23.20;99.90;;;;;;5092714;28;20497;-80
2021/06/21 00:46:24;;;;;;;12.50;11.60;;;23.10;99.90;;;;;;5093272;28;20499;-80
2021/06/21 00:48:50;;;;;;;13.20;12.30;;;23.10;99.90;;;;;;5093245;28;20196;-80
2021/06/21 00:51:16;;;;;;;14.57;13.57;;;23.10;99.90;;;;;;5110586;28;20207;-79
2021/06/21 00:53:43;;;;;;;14.73;13.60;;;23.10;99.90;;;;;;5113557;28;20195;-79
2021/06/21 00:56:09;;;;;;;15.47;14.27;;;23.10;99.90;;;;;;5112506;28;20231;-79
2021/06/21 00:58:35;;;;;;;12.13;11.23;;;23.10;99.90;;;;;;5113094;28;20424;-80
2021/06/21 01:01:01;;;;;;;13.03;12.03;;;23.10;99.90;;;;;;5112832;28;20221;-80
2021/06/21 01:03:27;;;;;;;15.00;14.00;;;23.10;99.90;;;;;;5113488;28;20418;-80
2021/06/21 01:05:53;;;;;;;14.73;13.63;;;23.10;99.90;;;;;;5112395;28;20427;-88
2021/06/21 01:08:19;;;;;;;13.73;12.63;;;23.10;99.90;;;;;;5113322;28;20222;-80
2021/06/21 01:10:49;;;;;;;13.10;12.10;;;23.10;99.90;;;;;;5095075;28;20222;-79
2021/06/21 01:13:35;;;;;;;15.40;14.20;;;23.10;99.90;;;;;;5092377;28;20176;-79
2021/06/21 01:16:32;;;;;;;15.77;14.47;;;23.10;99.90;;;;;;5092294;28;20882;-80
2021/06/21 01:19:29;;;;;;;13.33;12.20;;;23.10;99.90;;;;;;5092274;28;20390;-82
2021/06/21 01:22:25;;;;;;;15.17;13.97;;;23.00;99.90;;;;;;5049114;28;20423;-80
2021/06/21 01:25:11;;;;;;;14.77;13.67;;;23.00;99.90;;;;;;5092726;28;20411;-80
2021/06/21 01:27:57;;;;;;;15.20;14.00;;;23.10;99.90;;;;;;5092889;28;20754;-80
2021/06/21 01:31:02;;;;;;;15.37;14.27;;;23.10;99.90;;;;;;5093017;28;20537;-80
2021/06/21 01:33:29;;;;;;;14.67;13.53;;;23.10;99.90;;;;;;5100630;28;20421;-79
2021/06/21 01:36:00;;;;;;;13.03;12.13;;;23.10;99.90;;;;;;5112767;28;20489;-88
2021/06/21 01:38:30;;;;;;;16.33;14.93;;;23.10;99.90;;;;;;5113197;28;20542;-80
2021/06/21 01:40:59;;;;;;;15.00;13.80;;;23.20;99.90;;;;;;5112330;28;20407;-82
2021/06/21 01:43:29;;;;;;;14.20;13.00;;;23.20;99.90;;;;;;5112946;28;20405;-80
2021/06/21 01:45:58;;;;;;;12.97;12.07;;;23.20;99.90;;;;;;5113037;28;20422;-79
2021/06/21 01:48:25;;;;;;;15.87;14.57;;;23.30;99.90;;;;;;5109099;28;20907;-80
2021/06/21 01:50:56;;;;;;;14.83;13.63;;;23.30;99.90;;;;;;5092665;28;20486;-79
2021/06/21 01:53:26;;;;;;;15.83;14.53;;;23.30;99.90;;;;;;5092678;28;20421;-79
2021/06/21 01:56:00;;;;;;;15.70;14.50;;;23.30;99.90;;;;;;5092454;28;20457;-80
2021/06/21 01:58:29;;;;;;;14.73;13.50;;;23.20;99.90;;;;;;5092536;28;20407;-80
2021/06/21 02:00:57;;;;;;;16.23;14.83;;;23.20;99.90;;;;;;5092454;28;20486;-80
2021/06/21 02:03:23;;;;;;;16.37;15.03;;;23.20;99.90;;;;;;5103153;28;20947;-80
2021/06/21 02:05:51;;;;;;;14.00;12.90;;;23.20;99.90;;;;;;5112852;28;20412;-80
2021/06/21 02:08:19;;;;;;;13.00;12.10;;;23.10;99.90;;;;;;5112078;28;20730;-79
2021/06/21 02:10:49;;;;;;;17.27;15.93;;;23.10;99.90;;;;;;5112647;28;20409;-80
2021/06/21 02:13:15;;;;;;;16.23;14.57;;;23.10;99.90;;;;;;5112392;28;20836;-79
2021/06/21 02:15:42;;;;;;;16.37;14.97;;;23.00;99.90;;;;;;5112724;28;20436;-79
2021/06/21 02:18:08;;;;;;;15.90;14.60;;;23.10;99.90;;;;;;5102991;28;20418;-79
2021/06/21 02:20:35;;;;;;;17.10;15.60;;;23.10;99.90;;;;;;5096052;28;20758;-79
2021/06/21 02:23:01;;;;;;;15.93;14.63;;;23.00;99.90;;;;;;5095182;28;20766;-80
2021/06/21 02:25:28;;;;;;;16.00;14.77;;;23.00;99.90;;;;;;5096039;28;20410;-79
2021/06/21 02:27:54;;;;;;;17.90;16.40;;;22.90;99.90;;;;;;5095989;28;20403;-79
2021/06/21 02:30:20;;;;;;;16.50;15.13;;;23.00;99.90;;;;;;5095250;28;20802;-80
2021/06/21 02:32:49;;;;;;;16.77;15.47;;;23.00;99.90;;;;;;5095877;28;20402;-79
2021/06/21 02:35:16;;;;;;;18.10;16.70;;;23.00;99.90;;;;;;5095155;28;20401;-79
2021/06/21 02:37:42;;;;;;;19.20;17.73;;;23.00;99.90;;;;;;5106463;28;20869;-80
2021/06/21 02:40:13;;;;;;;21.67;19.70;;;22.80;99.90;;;;;;5115583;28;20401;-80
2021/06/21 02:42:40;;;;;;;21.07;19.20;;;22.60;99.90;;;;;;5115877;28;20844;-80
2021/06/21 02:45:08;;;;;;;21.17;19.17;;;22.40;99.90;;;;;;5115432;28;20416;-80
2021/06/21 02:47:35;;;;;;;21.80;19.70;;;22.30;99.90;;;;;;5115599;28;20494;-80
2021/06/21 02:50:02;;;;;;;21.30;19.50;;;22.20;99.90;;;;;;5110490;28;20457;-81
2021/06/21 02:52:50;;;;;;;21.23;19.43;;;22.20;99.90;;;;;;5095483;28;20548;-80
2021/06/21 02:55:29;;;;;;;14.23;13.13;;;22.00;99.90;;;;;;5094380;28;20579;-80
2021/06/21 02:58:13;;;;;;;18.23;16.83;;;22.00;99.90;;;;;;5095246;28;20479;-80
2021/06/21 03:00:40;;;;;;;15.67;14.47;;;22.10;99.90;;;;;;5095463;28;20477;-80
2021/06/21 03:03:09;;;;;;;18.60;16.90;;;22.20;99.90;;;;;;5094639;28;20406;-80
2021/06/21 03:05:37;;;;;;;18.80;17.30;;;22.30;99.90;;;;;;5107203;28;20414;-80
2021/06/21 03:08:05;;;;;;;21.40;19.60;;;22.40;99.90;;;;;;5115208;28;20414;-80
2021/06/21 03:10:32;;;;;;;21.07;19.37;;;22.30;99.90;;;;;;5115442;28;20457;-80
2021/06/21 03:12:59;;;;;;;19.97;18.37;;;22.10;99.90;;;;;;5115254;28;20466;-80
2021/06/21 03:15:27;;;;;;;21.43;19.53;;;22.10;99.90;;;;;;5114481;28;20900;-80
2021/06/21 03:17:55;;;;;;;20.57;18.77;;;22.00;99.90;;;;;;5115389;28;20394;-80
2021/06/21 03:20:22;;;;;;;21.20;19.27;;;21.90;99.90;;;;;;5103511;28;20421;-80
2021/06/21 03:22:49;;;;;;;20.37;18.57;;;21.80;99.90;;;;;;5094666;28;20773;-80
2021/06/21 03:25:15;;;;;;;22.37;20.47;;;21.80;99.90;;;;;;5094288;28;20491;-80
2021/06/21 03:27:41;;;;;;;18.67;17.17;;;21.80;99.90;;;;;;5094819;28;20403;-79
2021/06/21 03:30:16;;;;;;;19.77;18.17;;;21.80;99.90;;;;;;5093716;28;20952;-81
2021/06/21 03:32:43;;;;;;;19.37;17.77;;;21.90;99.90;;;;;;5095002;28;20390;-80
2021/06/21 03:35:11;;;;;;;20.50;18.80;;;21.90;99.90;;;;;;5094076;28;20748;-81
2021/06/21 03:37:37;;;;;;;22.80;20.80;;;22.00;99.90;;;;;;5094669;28;20523;-80
2021/06/21 03:40:05;;;;;;;20.07;18.37;;;22.00;99.90;;;;;;5094321;28;20414;-82
2021/06/21 03:42:32;;;;;;;19.30;17.77;;;22.00;99.90;;;;;;5094568;28;20406;-80
2021/06/21 03:44:58;;;;;;;21.07;19.27;;;22.00;99.90;;;;;;5094494;28;20427;-80
2021/06/21 03:47:24;;;;;;;22.10;20.20;;;22.00;99.90;;;;;;5093860;28;20556;-81
2021/06/21 03:49:50;;;;;;;20.30;18.53;;;22.10;99.90;;;;;;5094320;28;20212;-80
2021/06/21 03:52:16;;;;;;;22.20;20.40;;;22.10;99.90;;;;;;5093787;28;20179;-81
2021/06/21 03:54:42;;;;;;;22.40;20.53;;;22.20;99.90;;;;;;5094172;28;20411;-80
2021/06/21 03:57:09;;;;;;;22.53;20.73;;;22.20;99.90;;;;;;5093847;28;20446;-81
2021/06/21 03:59:35;;;;;;;20.50;18.80;;;22.20;99.90;;;;;;5102813;28;20207;-80
2021/06/21 04:02:00;;;;;;;22.40;20.60;;;22.20;99.90;;;;;;5114618;28;20420;-80
2021/06/21 04:04:27;;;;;;;21.57;19.73;;;22.20;99.90;;;;;;5113903;28;20501;-80
2021/06/21 04:06:53;;;;;;;18.13;16.43;;;22.20;99.90;;;;;;5114522;28;20168;-80
2021/06/21 04:09:19;;;;;;;20.63;18.63;;;22.20;99.90;;;;;;5113737;28;20855;-80
2021/06/21 04:11:45;;;;;;;19.00;17.60;;;22.20;99.90;;;;;;5114416;28;20412;-80
2021/06/21 04:14:14;;;;;;;20.70;19.00;;;22.20;99.90;;;;;;5113761;28;20496;-80
2021/06/21 04:16:40;;;;;;;19.70;18.00;;;22.20;99.90;;;;;;5114609;28;20428;-80
2021/06/21 04:19:06;;;;;;;21.00;19.30;;;22.10;99.90;;;;;;5103741;28;20513;-81
2021/06/21 04:21:32;;;;;;;27.77;25.07;;;22.20;99.90;;;;;;5093785;28;20730;-81
2021/06/21 04:23:58;;;;;;;21.70;20.00;;;22.20;99.90;;;;;;5093714;28;20172;-81
2021/06/21 04:26:23;;;;;;;22.87;20.87;;;22.20;99.90;;;;;;5093415;28;20403;-81
2021/06/21 04:28:50;;;;;;;21.23;19.50;;;22.20;99.90;;;;;;5093683;28;20213;-80
2021/06/21 04:31:16;;;;;;;22.70;20.80;;;22.20;99.90;;;;;;5093117;28;20238;-81
2021/06/21 04:33:42;;;;;;;23.43;21.33;;;22.20;99.90;;;;;;5093628;28;20886;-80
2021/06/21 04:36:08;;;;;;;21.00;19.10;;;22.10;99.90;;;;;;5092984;28;20399;-82
2021/06/21 04:38:34;;;;;;;24.27;22.07;;;22.10;99.90;;;;;;5102115;28;20420;-81
2021/06/21 04:41:00;;;;;;;22.03;20.10;;;22.10;99.90;;;;;;5113402;28;20172;-81
2021/06/21 04:43:25;;;;;;;22.20;20.27;;;22.10;99.90;;;;;;5113255;28;20495;-80
2021/06/21 04:45:51;;;;;;;20.97;19.27;;;22.10;99.90;;;;;;5108264;28;20176;-81
2021/06/21 04:48:17;;;;;;;22.30;19.90;;;22.10;99.90;;;;;;5092717;28;20268;-81
2021/06/21 04:50:42;;;;;;;18.60;17.00;;;22.20;99.90;;;;;;5075123;28;20187;-81
2021/06/21 04:53:12;;;;;;;17.77;16.30;;;22.20;99.90;;;;;;5093972;28;20187;-81
2021/06/21 04:55:38;;;;;;;18.67;16.63;;;22.20;99.90;;;;;;5092667;28;20307;-81
2021/06/21 04:58:03;;;;;;;16.20;14.80;;;22.20;99.90;;;;;;5100324;28;20449;-81
2021/06/21 05:00:29;;;;;;;14.90;13.80;;;22.20;99.90;;;;;;5107090;28;20922;-81
2021/06/21 05:02:55;;;;;;;12.83;11.63;;;22.30;99.90;;;;;;5105930;28;20208;-80
2021/06/21 05:05:21;;;;;;;11.70;10.47;;;22.30;99.90;;;;;;5094321;28;20178;-81
2021/06/21 05:07:52;;;;;;;13.27;10.27;;;22.20;99.90;;;;;;5093566;28;20180;-80
2021/06/21 05:10:20;;;;;;;11.80;10.90;;;22.20;99.90;;;;;;5092366;28;20230;-81
2021/06/21 05:12:47;;;;;;;11.30;9.00;;;22.20;99.90;;;;;;5093094;28;20746;-81
2021/06/21 05:15:14;;;;;;;10.10;8.97;;;22.10;99.90;;;;;;5092321;28;20426;-81
2021/06/21 05:17:40;;;;;;;9.40;8.50;;;22.00;99.90;;;;;;5092869;28;20749;-81
2021/06/21 05:20:08;;;;;;;8.67;7.80;;;22.10;99.90;;;;;;5092509;28;20912;-81
2021/06/21 05:22:34;;;;;;;7.17;6.47;;;22.00;99.90;;;;;;5092766;28;20433;-81
2021/06/21 05:25:00;;;;;;;8.83;6.50;;;21.90;99.90;;;;;;5092839;28;20866;-81
2021/06/21 05:27:30;;;;;;;6.40;5.80;;;21.80;99.90;;;;;;5092212;28;20410;-81
2021/06/21 05:29:56;;;;;;;6.90;6.33;;;21.70;99.90;;;;;;5098945;28;20544;-82
2021/06/21 05:32:22;;;;;;;10.77;5.53;;;21.70;99.90;;;;;;5095551;28;20489;-81
2021/06/21 05:34:48;;;;;;;7.97;7.23;;;21.80;99.90;;;;;;5103761;28;20564;-81
2021/06/21 05:37:13;;;;;;;8.53;5.90;;;21.90;99.90;;;;;;5107603;28;20325;-81
2021/06/21 05:39:39;;;;;;;8.93;5.40;;;22.00;99.90;;;;;;5098918;28;20176;-82
2021/06/21 05:42:05;;;;;;;6.53;5.07;;;21.90;99.90;;;;;;5091918;28;20177;-81
2021/06/21 05:44:31;;;;;;;7.40;5.40;;;21.90;99.90;;;;;;5091113;28;20184;-81
2021/06/21 05:46:57;;;;;;;6.23;5.67;;;21.80;99.90;;;;;;5094399;28;20414;-81
2021/06/21 05:49:24;;;;;;;5.70;5.10;;;21.80;99.90;;;;;;5097720;28;20208;-81
2021/06/21 05:51:50;;;;;;;8.03;5.87;;;21.60;99.90;;;;;;5101714;28;20198;-86
2021/06/21 05:54:15;;;;;;;8.37;5.03;;;21.60;99.90;;;;;;5088427;28;20413;-84
2021/06/21 05:56:41;;;;;;;8.10;6.50;;;21.60;99.90;;;;;;5096221;28;20263;-86
2021/06/21 05:59:07;;;;;;;9.00;8.10;;;21.50;99.90;;;;;;5101485;28;20595;-86
2021/06/21 06:01:34;;;;;;;7.00;5.13;;;21.70;99.90;;;;;;5095885;28;20226;-86
2021/06/21 06:03:59;;;;;;;7.07;5.97;;;21.80;99.90;;;;;;5096422;28;20180;-87
2021/06/21 06:06:25;;;;;;;13.33;6.00;;;21.90;99.90;;;;;;5099178;28;20405;-87
2021/06/21 06:08:51;;;;;;;7.07;5.63;;;22.00;99.90;;;;;;5116148;28;20199;-85
2021/06/21 06:11:17;;;;;;;5.97;5.27;;;21.80;99.90;;;;;;5115134;28;20662;-84
2021/06/21 06:13:42;;;;;;;5.80;4.80;;;21.70;99.90;;;;;;5116632;28;20211;-84
2021/06/21 06:16:08;;;;;;;6.03;4.20;;;21.80;99.90;;;;;;5114977;28;20848;-86
2021/06/21 06:18:35;;;;;;;4.77;4.40;;;21.70;99.90;;;;;;5106307;27;20180;-84
2021/06/21 06:21:01;;;;;;;10.63;4.87;;;21.50;99.90;;;;;;5097275;28;20186;-85
2021/06/21 06:23:27;;;;;;;7.50;6.90;;;21.60;99.90;;;;;;5114607;27;20413;-85
2021/06/21 06:25:53;;;;;;;4.97;4.57;;;21.60;99.90;;;;;;5122368;27;20909;-85
2021/06/21 06:28:18;;;;;;;6.90;3.93;;;21.60;99.90;;;;;;5094583;28;20176;-84
2021/06/21 06:30:44;;;;;;;7.57;6.87;;;21.50;99.90;;;;;;5112428;28;20180;-84
2021/06/21 06:33:10;;;;;;;6.00;5.40;;;21.60;99.90;;;;;;5077558;28;20187;-84
2021/06/21 06:35:36;;;;;;;5.27;4.87;;;21.60;99.90;;;;;;5105745;28;20206;-84
2021/06/21 06:38:01;;;;;;;5.50;5.00;;;21.70;99.90;;;;;;5116178;28;20623;-84
2021/06/21 06:40:27;;;;;;;5.80;5.20;;;21.80;99.90;;;;;;5109070;27;20183;-86
2021/06/21 06:42:54;;;;;;;5.67;4.87;;;21.80;99.90;;;;;;5131875;27;20193;-88
2021/06/21 06:45:21;;;;;;;5.33;4.70;;;22.00;99.90;;;;;;5127007;27;20603;-84
2021/06/21 06:47:48;;;;;;;6.70;5.97;;;22.10;99.90;;;;;;5095449;28;20410;-84
2021/06/21 06:50:14;;;;;;;5.47;5.17;;;21.90;99.90;;;;;;5094558;28;20464;-85
2021/06/21 06:52:42;;;;;;;4.90;4.27;;;22.00;99.90;;;;;;5095219;28;20436;-84
2021/06/21 06:57:53;;;;;;;7.67;7.10;;;22.20;99.90;;;;;;5106779;28;20810;-85
2021/06/21 07:00:19;;;;;;;6.13;5.33;;;22.30;99.90;;;;;;5112332;28;20421;-84
2021/06/21 07:02:46;;;;;;;8.70;5.43;;;22.40;99.90;;;;;;5096574;28;20422;-84
2021/06/21 07:05:12;;;;;;;5.63;3.30;;;22.40;99.90;;;;;;5095352;28;20434;-85
2021/06/21 07:07:38;;;;;;;4.57;3.20;;;22.50;99.90;;;;;;5101452;28;20549;-85
2021/06/21 07:10:04;;;;;;;5.80;4.20;;;22.40;99.90;;;;;;5104212;28;20596;-82
2021/06/21 07:12:30;;;;;;;4.60;4.20;;;22.40;99.90;;;;;;5094440;28;20671;-82
2021/06/21 07:14:56;;;;;;;6.23;4.80;;;22.40;99.90;;;;;;5101144;28;20509;-82
2021/06/21 07:17:22;;;;;;;5.73;4.67;;;22.50;99.90;;;;;;5113546;28;20172;-81
2021/06/21 07:19:47;;;;;;;5.97;4.80;;;22.50;99.90;;;;;;5115222;28;20611;-86
2021/06/21 07:22:13;;;;;;;7.23;4.23;;;22.60;99.90;;;;;;5114803;28;20266;-84
2021/06/21 07:24:39;;;;;;;6.50;4.67;;;22.60;99.90;;;;;;5096370;28;20194;-85
2021/06/21 07:27:06;;;;;;;5.93;4.90;;;22.60;99.90;;;;;;5104544;28;20630;-84
2021/06/21 07:29:32;;;;;;;5.47;4.93;;;22.50;99.90;;;;;;5093915;28;20204;-84
2021/06/21 07:31:58;;;;;;;6.33;5.23;;;22.40;99.90;;;;;;5094768;28;20411;-83
2021/06/21 07:34:24;;;;;;;6.37;5.90;;;22.40;99.90;;;;;;5080256;28;20433;-83
2021/06/21 07:36:49;;;;;;;5.60;4.63;;;22.30;99.90;;;;;;5112643;28;20258;-83
2021/06/21 07:39:15;;;;;;;6.03;4.40;;;22.30;99.90;;;;;;5112919;28;20180;-85
2021/06/21 07:41:41;;;;;;;7.10;4.20;;;22.40;99.90;;;;;;5097124;28;20168;-84
2021/06/21 07:44:07;;;;;;;3.97;3.67;;;22.40;99.90;;;;;;5107521;28;20225;-84
2021/06/21 07:46:33;;;;;;;4.60;3.80;;;22.30;99.90;;;;;;5093521;28;20490;-84
2021/06/21 07:48:59;;;;;;;5.30;4.10;;;22.20;99.90;;;;;;5100289;28;20216;-83
2021/06/21 07:51:26;;;;;;;5.40;3.97;;;22.10;99.90;;;;;;5106908;28;20180;-84
2021/06/21 07:53:53;;;;;;;4.60;4.30;;;22.10;99.90;;;;;;5112432;28;20413;-84
2021/06/21 07:56:20;;;;;;;4.20;3.80;;;22.10;99.90;;;;;;5106785;28;20480;-83
2021/06/21 07:58:46;;;;;;;4.10;3.90;;;22.10;99.90;;;;;;5105246;28;20422;-84
2021/06/21 08:01:12;;;;;;;4.70;4.23;;;22.20;99.90;;;;;;5096133;28;20489;-84
2021/06/21 08:03:39;;;;;;;4.10;3.87;;;22.10;99.90;;;;;;5095025;28;20510;-84
2021/06/21 08:06:06;;;;;;;3.87;3.30;;;22.20;99.90;;;;;;5095873;28;20407;-84
2021/06/21 08:08:32;;;;;;;3.27;2.90;;;22.20;99.90;;;;;;5093411;28;20774;-84
2021/06/21 08:10:59;;;;;;;3.90;3.70;;;22.30;99.90;;;;;;5107901;28;20423;-84
2021/06/21 08:13:24;;;;;;;2.60;2.50;;;22.40;99.90;;;;;;5113633;28;20417;-84
2021/06/21 08:15:51;;;;;;;3.13;3.00;;;22.60;99.90;;;;;;5110808;28;20417;-84
2021/06/21 08:18:17;;;;;;;3.47;3.20;;;22.70;99.90;;;;;;5098359;28;20267;-83
2021/06/21 08:20:43;;;;;;;4.50;3.37;;;22.80;99.90;;;;;;5098785;28;20418;-84
2021/06/21 08:23:14;;;;;;;3.60;3.33;;;22.80;99.90;;;;;;5102657;28;20913;-84
2021/06/21 08:25:42;;;;;;;4.07;3.77;;;23.00;99.90;;;;;;5092207;28;20410;-84
2021/06/21 08:28:15;;;;;;;3.53;3.20;;;23.00;99.90;;;;;;5093285;28;20414;-84
2021/06/21 08:30:41;;;;;;;4.30;4.10;;;22.80;99.90;;;;;;5093105;28;20454;-85
2021/06/21 08:33:07;;;;;;;3.83;3.53;;;22.80;99.90;;;;;;5093594;28;20902;-85
2021/06/21 08:35:33;;;;;;;4.40;4.10;;;23.00;99.90;;;;;;5093274;28;20402;-85
2021/06/21 08:37:59;;;;;;;5.00;4.70;;;23.20;99.90;;;;;;5093509;28;20423;-85
2021/06/21 08:40:27;;;;;;;4.60;4.00;;;23.10;99.90;;;;;;5092945;28;20418;-85
2021/06/21 08:42:53;;;;;;;4.13;3.93;;;23.10;99.90;;;;;;5093033;28;20160;-85
2021/06/21 08:45:19;;;;;;;5.00;4.60;;;23.30;99.90;;;;;;5093123;28;20418;-85
2021/06/21 08:47:45;;;;;;;3.93;3.70;;;23.50;99.90;;;;;;5093349;28;20259;-85
2021/06/21 08:50:14;;;;;;;7.17;6.73;;;23.70;99.90;;;;;;5093249;28;20461;-85
2021/06/21 08:52:43;;;;;;;5.10;4.90;;;23.90;99.90;;;;;;5092707;28;20407;-85
2021/06/21 08:55:10;;;;;;;6.20;5.10;;;23.80;99.90;;;;;;5093009;28;20422;-85
2021/06/21 08:57:40;;;;;;;5.03;4.57;;;23.80;99.90;;;;;;5092620;28;20419;-85
2021/06/21 09:00:08;;;;;;;5.50;4.87;;;23.90;99.90;;;;;;5093086;28;20410;-85
2021/06/21 09:02:34;;;;;;;6.17;5.87;;;24.00;99.90;;;;;;5092551;28;20450;-85
2021/06/21 09:05:00;;;;;;;5.17;4.87;;;24.10;99.90;;;;;;5092831;28;20483;-85
2021/06/21 09:07:28;;;;;;;6.80;6.37;;;24.10;99.90;;;;;;5092447;28;20908;-85
2021/06/21 09:09:56;;;;;;;7.10;6.70;;;24.20;99.90;;;;;;5092878;28;20554;-85
2021/06/21 09:12:30;;;;;;;4.67;4.30;;;24.20;99.90;;;;;;5092378;28;20398;-84
2021/06/21 09:14:58;;;;;;;9.10;6.30;;;24.20;99.90;;;;;;5093167;28;20421;-85
2021/06/21 09:17:26;;;;;;;5.50;5.10;;;24.20;99.90;;;;;;5092293;28;20547;-84
2021/06/21 09:20:00;;;;;;;6.30;4.47;;;24.10;99.90;;;;;;5092757;28;20421;-85
2021/06/21 09:22:31;;;;;;;5.43;4.93;;;23.90;99.90;;;;;;5074155;28;20414;-84
2021/06/21 09:25:19;;;;;;;5.50;5.13;;;23.90;99.90;;;;;;5074679;28;20423;-85
2021/06/21 09:28:03;;;;;;;4.73;4.30;;;23.80;99.90;;;;;;5091462;28;20426;-85
2021/06/21 09:30:30;;;;;;;4.53;4.27;;;23.80;99.90;;;;;;5092219;28;20498;-84
2021/06/21 09:32:58;;;;;;;5.83;5.50;;;23.70;99.90;;;;;;5092925;28;20421;-85
2021/06/21 09:35:29;;;;;;;5.77;5.37;;;23.60;99.90;;;;;;5091774;28;20489;-84
2021/06/21 09:37:57;;;;;;;4.70;4.33;;;23.60;99.90;;;;;;5092404;28;20944;-85
2021/06/21 09:40:39;;;;;;;4.77;4.43;;;23.50;99.90;;;;;;5092017;28;20410;-84
2021/06/21 09:43:26;;;;;;;6.57;6.17;;;23.50;99.90;;;;;;5092867;28;20391;-84
2021/06/21 09:46:12;;;;;;;6.07;5.70;;;23.60;99.90;;;;;;5092411;28;20387;-84
2021/06/21 09:48:45;;;;;;;7.40;7.00;;;23.60;99.90;;;;;;5091998;28;20505;-84
2021/06/21 09:51:24;;;;;;;5.67;5.30;;;23.70;99.90;;;;;;5092784;28;20413;-85
2021/06/21 09:53:59;;;;;;;5.60;5.30;;;23.80;99.90;;;;;;5092545;28;20835;-84
2021/06/21 09:56:36;;;;;;;12.53;11.57;;;23.80;99.90;;;;;;5091732;28;20514;-84
2021/06/21 09:59:18;;;;;;;6.27;5.87;;;23.90;99.90;;;;;;5092408;28;20822;-85
2021/06/21 10:01:44;;;;;;;5.70;5.30;;;23.80;99.90;;;;;;5073678;28;20694;-85
2021/06/21 10:04:24;;;;;;;7.13;6.60;;;23.90;99.90;;;;;;5092064;28;20411;-85
2021/06/21 10:06:49;;;;;;;10.07;9.57;;;23.90;99.90;;;;;;5092532;28;20422;-85
2021/06/21 10:09:15;;;;;;;8.80;8.40;;;23.90;99.90;;;;;;5092161;28;20465;-85
2021/06/21 10:11:43;;;;;;;7.50;7.00;;;23.90;99.90;;;;;;5091711;28;20172;-84
2021/06/21 10:14:12;;;;;;;8.70;8.00;;;23.80;99.90;;;;;;5092280;28;20176;-84
2021/06/21 10:16:39;;;;;;;11.73;10.63;;;23.80;99.90;;;;;;5091753;28;20754;-84
2021/06/21 10:19:06;;;;;;;16.00;14.77;;;23.80;99.90;;;;;;5074241;28;20417;-85
2021/06/21 10:21:34;;;;;;;18.67;17.07;;;23.80;99.90;;;;;;5091621;28;20414;-84
2021/06/21 10:24:00;;;;;;;18.80;16.93;;;23.70;99.90;;;;;;5091923;28;20468;-84
2021/06/21 10:26:26;;;;;;;17.63;16.23;;;23.70;99.90;;;;;;5091204;28;20429;-84
2021/06/21 10:28:53;;;;;;;16.93;15.20;;;23.60;99.90;;;;;;5092332;28;20536;-85
2021/06/21 10:31:27;;;;;;;19.40;17.63;;;23.60;99.90;;;;;;5092164;28;20409;-85
2021/06/21 10:34:04;;;;;;;18.50;16.80;;;23.60;99.90;;;;;;5092139;28;20421;-84
2021/06/21 10:36:44;;;;;;;20.50;18.70;;;23.60;99.90;;;;;;5091293;28;20390;-84
2021/06/21 10:39:19;;;;;;;19.00;17.17;;;23.70;99.90;;;;;;5093816;28;20425;-84
2021/06/21 10:42:03;;;;;;;21.53;19.37;;;23.70;99.90;;;;;;5095224;28;20413;-84
2021/06/21 10:44:47;;;;;;;23.10;20.63;;;23.70;99.90;;;;;;5095382;28;20425;-85
2021/06/21 10:47:25;;;;;;;22.00;19.90;;;23.70;99.90;;;;;;5095395;28;20944;-85
2021/06/21 10:49:59;;;;;;;22.43;20.33;;;23.60;99.90;;;;;;5095499;28;20544;-84
2021/06/21 10:52:39;;;;;;;23.40;21.00;;;23.60;99.90;;;;;;5095482;28;20920;-84
2021/06/21 10:57:51;;;;;;;26.33;23.63;;;23.40;99.90;;;;;;5094877;28;20402;-85
2021/06/21 11:00:19;;;;;;;26.63;23.87;;;23.30;99.90;;;;;;5095226;28;20501;-84
2021/06/21 11:02:45;;;;;;;24.10;21.50;;;23.10;99.80;;;;;;5094730;28;20395;-84
2021/06/21 11:05:11;;;;;;;26.73;24.03;;;23.00;99.90;;;;;;5095364;28;20498;-84
2021/06/21 11:07:37;;;;;;;24.67;22.03;;;22.70;99.90;;;;;;5094701;28;20203;-84
2021/06/21 11:10:07;;;;;;;23.50;20.53;;;22.60;99.90;;;;;;5095239;28;20861;-84
2021/06/21 11:12:36;;;;;;;23.80;20.83;;;22.40;99.90;;;;;;5094275;28;20846;-84
2021/06/21 11:15:14;;;;;;;21.00;19.00;;;22.30;99.90;;;;;;5095132;28;20410;-83
2021/06/21 11:17:45;;;;;;;19.47;17.50;;;22.20;99.90;;;;;;5094547;28;20418;-83
2021/06/21 11:20:40;;;;;;;18.10;16.30;;;22.20;99.90;;;;;;5095244;28;20414;-83
2021/06/21 11:23:11;;;;;;;18.17;16.40;;;22.10;99.90;;;;;;5094677;28;20825;-83
2021/06/21 11:25:41;;;;;;;18.30;16.40;;;22.10;99.90;;;;;;5094373;28;20506;-84
2021/06/21 11:28:33;;;;;;;15.30;13.70;;;21.90;99.90;;;;;;5094879;28;20469;-83
2021/06/21 11:31:18;;;;;;;14.90;13.40;;;21.80;99.90;;;;;;5094866;28;20407;-83
2021/06/21 11:33:53;;;;;;;11.50;10.40;;;21.70;99.90;;;;;;5094102;28;20410;-83
2021/06/21 11:36:40;;;;;;;12.10;10.90;;;21.70;99.90;;;;;;5094690;28;20500;-84
2021/06/21 11:39:27;;;;;;;10.53;9.63;;;21.60;99.90;;;;;;5094374;28;20406;-84
2021/06/21 11:42:03;;;;;;;10.83;9.83;;;21.50;99.90;;;;;;5094078;28;20407;-84
2021/06/21 11:44:40;;;;;;;9.27;8.53;;;21.50;99.90;;;;;;5094286;28;20754;-83
2021/06/21 11:47:18;;;;;;;9.33;8.47;;;21.50;99.90;;;;;;5094495;28;20905;-84
2021/06/21 11:49:45;;;;;;;8.30;7.60;;;21.40;99.90;;;;;;5093537;28;20465;-84
2021/06/21 11:52:19;;;;;;;10.70;9.60;;;21.40;99.90;;;;;;5094119;28;20882;-84
2021/06/21 11:54:46;;;;;;;12.70;11.70;;;21.30;99.90;;;;;;5093627;28;20411;-84
2021/06/21 11:57:13;;;;;;;12.77;11.67;;;21.20;99.90;;;;;;5094177;28;20450;-83
2021/06/21 11:59:45;;;;;;;12.67;11.60;;;21.20;99.90;;;;;;5093645;28;20418;-83
2021/06/21 12:02:12;;;;;;;11.47;10.47;;;21.20;99.90;;;;;;5094176;28;20439;-84
2021/06/21 12:04:39;;;;;;;11.20;10.20;;;21.10;99.90;;;;;;5093603;28;20497;-85
2021/06/21 12:07:06;;;;;;;11.67;10.67;;;21.10;99.90;;;;;;5093780;28;20460;-84
2021/06/21 12:09:52;;;;;;;10.13;9.27;;;21.00;99.90;;;;;;5093386;28;20454;-83
2021/06/21 12:12:23;;;;;;;10.27;9.50;;;21.00;99.90;;;;;;5094115;28;20744;-83
2021/06/21 12:14:49;;;;;;;10.60;9.80;;;21.00;99.90;;;;;;5093281;28;20414;-83
2021/06/21 12:17:21;;;;;;;11.27;10.33;;;21.00;99.90;;;;;;5093843;28;20420;-83
2021/06/21 12:19:58;;;;;;;11.80;10.90;;;20.80;99.90;;;;;;5093338;28;20209;-83
2021/06/21 12:22:24;;;;;;;9.70;9.00;;;20.80;99.90;;;;;;5093905;28;20444;-83
2021/06/21 12:24:50;;;;;;;11.03;10.23;;;20.70;99.90;;;;;;5093380;28;20414;-83
2021/06/21 12:27:16;;;;;;;15.97;14.67;;;20.70;99.90;;;;;;5093752;28;20183;-83
2021/06/21 12:29:41;;;;;;;8.63;7.93;;;20.50;99.90;;;;;;5092874;28;20454;-83
2021/06/21 12:32:12;;;;;;;8.17;7.67;;;20.50;99.90;;;;;;5093649;28;20484;-83
2021/06/21 12:34:44;;;;;;;7.57;7.07;;;20.50;99.90;;;;;;5093080;28;20196;-83
2021/06/21 12:37:37;;;;;;;7.30;6.80;;;20.40;99.90;;;;;;5093619;28;20413;-83
2021/06/21 12:40:16;;;;;;;7.77;7.27;;;20.40;99.90;;;;;;5093312;28;20471;-83
2021/06/21 12:42:43;;;;;;;6.80;6.40;;;20.40;99.90;;;;;;5092651;28;20402;-83
2021/06/21 12:45:21;;;;;;;6.07;5.67;;;20.30;99.90;;;;;;5093766;28;20413;-83
2021/06/21 12:47:55;;;;;;;6.33;5.93;;;20.30;99.90;;;;;;5092813;28;20402;-83
2021/06/21 12:50:25;;;;;;;6.57;6.17;;;20.20;99.90;;;;;;5093368;28;20441;-83